Time;durP1;ratioP1;P1;durP2;ratioP2;P2;SDS_P1;SDS_P2;PMS_P1;PMS_P2;Temp;Humidity;BMP_temperature;BMP_pressure;BME280_temperature;BME280_humidity;BME280_pressure;Samples;Min_cycle;Max_cycle;Signal;HPM_P1;HPM_P2
2022/10/08 00:00:33;;;;;;;11.73;2.17;;;;;;;21.08;60.13;101214.03;2079333;28;20536;-75
2022/10/08 00:01:57;;;;;;;9.43;2.05;;;;;;;21.11;60.13;101213.09;2088377;28;20047;-75
2022/10/08 00:03:23;;;;;;;10.65;2.38;;;;;;;21.11;59.87;101215.78;2093319;28;20047;-75
2022/10/08 00:04:46;;;;;;;6.10;1.70;;;;;;;21.08;59.99;101210.47;2094397;28;20056;-76
2022/10/08 00:06:11;;;;;;;11.93;3.03;;;;;;;21.05;60.23;101210.53;2088434;28;20057;-75
2022/10/08 00:07:33;;;;;;;8.90;2.20;;;;;;;21.02;60.35;101213.28;2097439;28;20047;-75
2022/10/08 00:08:58;;;;;;;9.10;2.20;;;;;;;21.00;60.38;101204.38;2086605;28;20052;-76
2022/10/08 00:10:21;;;;;;;7.38;2.10;;;;;;;20.98;60.37;101203.53;2087583;28;20040;-75
2022/10/08 00:11:42;;;;;;;9.85;1.98;;;;;;;20.97;60.38;101205.31;2101539;28;20043;-75
2022/10/08 00:13:05;;;;;;;7.50;2.17;;;;;;;20.98;60.30;101207.09;2096139;28;20560;-74
2022/10/08 00:14:28;;;;;;;6.07;2.03;;;;;;;21.00;60.44;101204.38;2082659;28;20037;-76
2022/10/08 00:15:49;;;;;;;6.07;1.83;;;;;;;21.01;60.25;101200.75;2083358;28;20425;-75
2022/10/08 00:17:14;;;;;;;8.63;1.88;;;;;;;21.03;60.11;101201.63;2094023;28;20048;-75
2022/10/08 00:18:35;;;;;;;6.95;1.85;;;;;;;21.04;60.28;101206.09;2091794;28;20060;-76
2022/10/08 00:19:58;;;;;;;6.35;1.88;;;;;;;21.04;60.15;101209.66;2085384;28;20127;-75
2022/10/08 00:21:22;;;;;;;7.93;2.13;;;;;;;21.04;60.27;101203.41;2087580;28;20136;-75
2022/10/08 00:22:45;;;;;;;12.52;2.33;;;;;;;21.03;60.45;101197.16;2091610;28;20121;-75
2022/10/08 00:24:11;;;;;;;6.47;1.77;;;;;;;21.07;60.43;101208.69;2078957;28;20049;-76
2022/10/08 00:25:40;;;;;;;13.70;2.35;;;;;;;21.10;60.12;101208.63;2088976;28;21937;-76
2022/10/08 00:27:02;;;;;;;9.95;1.77;;;;;;;21.13;60.04;101207.72;2092405;28;20389;-76
2022/10/08 00:28:25;;;;;;;6.75;1.88;;;;;;;21.15;60.02;101200.47;2087460;28;20037;-76
2022/10/08 00:29:47;;;;;;;10.05;2.83;;;;;;;21.18;60.04;101208.53;2091115;28;20070;-75
2022/10/08 00:31:10;;;;;;;8.27;2.25;;;;;;;21.21;60.03;101203.06;2093070;28;20090;-75
2022/10/08 00:32:34;;;;;;;7.47;1.88;;;;;;;21.21;60.05;101203.97;2093725;28;20053;-75
2022/10/08 00:33:58;;;;;;;12.85;2.28;;;;;;;21.21;60.25;101206.63;2078761;28;20110;-75
2022/10/08 00:35:20;;;;;;;9.25;2.28;;;;;;;21.20;60.18;101195.97;2091607;28;20058;-75
2022/10/08 00:36:43;;;;;;;8.63;2.13;;;;;;;21.19;59.96;101195.06;2079810;28;20037;-76
2022/10/08 00:38:06;;;;;;;5.25;2.20;;;;;;;21.24;59.83;101194.97;2085677;28;20512;-75
2022/10/08 00:39:28;;;;;;;7.65;2.10;;;;;;;21.24;59.75;101190.47;2093041;28;20082;-76
2022/10/08 00:40:51;;;;;;;8.15;1.90;;;;;;;21.22;59.48;101191.41;2085487;28;20147;-75
2022/10/08 00:42:14;;;;;;;8.45;2.45;;;;;;;21.22;59.35;101191.41;2098867;28;20488;-76
2022/10/08 00:43:39;;;;;;;11.50;1.98;;;;;;;21.18;59.18;101190.63;2087341;28;20143;-76
2022/10/08 00:45:02;;;;;;;8.45;1.90;;;;;;;21.16;59.27;101187.06;2093956;28;20048;-75
2022/10/08 00:46:28;;;;;;;8.45;1.85;;;;;;;21.16;59.02;101183.50;2085004;28;20048;-76
2022/10/08 00:47:56;;;;;;;8.07;2.25;;;;;;;21.16;58.97;101188.88;2100474;28;20040;-75
2022/10/08 00:49:21;;;;;;;7.35;1.60;;;;;;;21.15;58.67;101187.06;2101711;28;20050;-75
2022/10/08 00:50:44;;;;;;;8.27;2.17;;;;;;;21.14;58.68;101186.16;2095679;28;20569;-76
2022/10/08 00:52:05;;;;;;;4.70;1.60;;;;;;;21.14;58.44;101177.22;2093779;28;20084;-75
2022/10/08 00:53:29;;;;;;;8.48;1.80;;;;;;;21.14;58.36;101182.59;2092569;28;20047;-75
2022/10/08 00:54:50;;;;;;;5.93;1.80;;;;;;;21.13;58.52;101173.69;2093709;28;20459;-75
2022/10/08 00:56:13;;;;;;;10.73;2.67;;;;;;;21.14;58.50;101182.59;2093656;28;20052;-75
2022/10/08 00:57:36;;;;;;;6.88;1.92;;;;;;;21.14;58.43;101177.22;2084912;28;20092;-76
2022/10/08 00:58:59;;;;;;;9.35;2.00;;;;;;;21.13;58.60;101171.00;2089657;28;20049;-75
2022/10/08 01:00:23;;;;;;;7.53;1.88;;;;;;;21.13;58.59;101176.38;2083840;28;20463;-75
2022/10/08 01:01:45;;;;;;;10.95;1.65;;;;;;;21.13;58.56;101162.94;2090611;28;20053;-76
2022/10/08 01:03:09;;;;;;;8.07;2.25;;;;;;;21.10;58.72;101171.06;2088011;28;20053;-75
2022/10/08 01:04:31;;;;;;;7.70;1.80;;;;;;;21.06;58.90;101175.63;2093681;28;20037;-75
2022/10/08 01:06:03;;;;;;;7.90;2.22;;;;;;;21.03;59.13;101162.25;2088949;28;20041;-75
2022/10/08 01:07:32;;;;;;;8.55;2.17;;;;;;;20.98;59.20;101163.25;2093064;28;20078;-75
2022/10/08 01:09:00;;;;;;;11.50;2.05;;;;;;;20.95;59.27;101163.31;2086398;28;20107;-76
2022/10/08 01:10:29;;;;;;;3.97;1.48;;;;;;;20.93;59.38;101162.47;2084237;28;20127;-75
2022/10/08 01:11:59;;;;;;;4.78;1.80;;;;;;;20.91;59.26;101156.25;2087213;28;20045;-75
2022/10/08 01:13:37;;;;;;;4.68;1.90;;;;;;;20.89;59.45;101155.38;2086686;28;21695;-75
2022/10/08 01:15:05;;;;;;;10.93;2.10;;;;;;;20.89;59.51;101156.28;2096864;28;20049;-76
2022/10/08 01:16:34;;;;;;;9.13;2.65;;;;;;;20.90;59.21;101158.03;2087639;28;20090;-75
2022/10/08 01:18:04;;;;;;;7.57;1.80;;;;;;;20.90;59.33;101149.09;2096301;28;20471;-76
2022/10/08 01:19:50;;;;;;;8.57;1.92;;;;;;;20.89;59.27;101158.06;2089809;28;20067;-75
2022/10/08 01:21:17;;;;;;;7.43;1.80;;;;;;;20.89;59.44;101155.38;2097776;28;20060;-76
2022/10/08 01:23:02;;;;;;;5.88;1.98;;;;;;;20.90;59.41;101154.47;2086394;28;20094;-76
2022/10/08 01:26:46;;;;;;;9.00;1.95;;;;;;;20.81;59.35;101157.31;2088724;28;20465;-75
2022/10/08 01:28:17;;;;;;;3.70;1.83;;;;;;;20.74;59.31;101148.53;2088196;28;20147;-75
2022/10/08 01:29:45;;;;;;;3.72;1.40;;;;;;;20.69;59.56;101143.25;2086631;28;20550;-76
2022/10/08 01:31:13;;;;;;;5.25;1.73;;;;;;;20.66;59.32;101143.31;2085934;28;20049;-76
2022/10/08 01:32:43;;;;;;;8.77;2.28;;;;;;;20.66;59.39;101139.75;2101116;28;20036;-76
2022/10/08 01:34:10;;;;;;;9.02;1.70;;;;;;;20.62;59.34;101146.97;2088888;28;20433;-75
2022/10/08 01:35:36;;;;;;;7.20;1.90;;;;;;;20.61;59.20;101145.19;2094012;28;20052;-76
2022/10/08 01:37:01;;;;;;;5.00;2.00;;;;;;;20.60;59.11;101137.19;2095651;28;20083;-75
2022/10/08 01:38:29;;;;;;;6.13;2.13;;;;;;;20.60;58.95;101142.56;2086522;28;20049;-75
2022/10/08 01:39:54;;;;;;;6.80;2.22;;;;;;;20.60;59.00;101147.94;2094400;28;20056;-76
2022/10/08 01:41:18;;;;;;;5.53;1.88;;;;;;;20.62;58.95;101148.75;2087146;28;20037;-75
2022/10/08 01:42:41;;;;;;;6.07;1.95;;;;;;;20.61;58.80;101142.50;2084272;28;20076;-75
2022/10/08 01:44:09;;;;;;;6.10;1.90;;;;;;;20.63;58.82;101150.53;2088430;28;20083;-74
2022/10/08 01:45:47;;;;;;;7.47;2.83;;;;;;;20.61;58.90;101147.88;2092366;28;20052;-75
2022/10/08 01:47:14;;;;;;;8.35;2.22;;;;;;;20.61;59.03;101147.03;2088409;28;20036;-75
2022/10/08 01:48:39;;;;;;;8.43;2.38;;;;;;;20.63;59.11;101143.38;2085044;28;20147;-76
2022/10/08 01:50:07;;;;;;;8.82;1.98;;;;;;;20.63;59.08;101147.84;2085155;28;20099;-75
2022/10/08 01:51:32;;;;;;;7.55;2.20;;;;;;;20.64;59.13;101152.31;2096781;28;20135;-75
2022/10/08 01:52:59;;;;;;;4.75;1.90;;;;;;;20.64;59.10;101147.84;2097672;28;20143;-76
2022/10/08 01:54:25;;;;;;;6.60;1.60;;;;;;;20.65;59.08;101146.03;2093005;28;20063;-75
2022/10/08 01:55:52;;;;;;;8.68;2.20;;;;;;;20.66;59.07;101153.19;2095015;28;20561;-75
2022/10/08 01:57:15;;;;;;;6.78;1.52;;;;;;;20.67;59.04;101147.78;2095768;28;20148;-75
2022/10/08 01:58:44;;;;;;;6.00;1.92;;;;;;;20.74;59.03;101150.34;2085183;28;20071;-76
2022/10/08 02:00:10;;;;;;;8.05;2.00;;;;;;;20.80;58.70;101144.84;2094439;28;20052;-75
2022/10/08 02:01:41;;;;;;;8.55;2.00;;;;;;;20.85;58.62;101149.22;2095093;28;20083;-75
2022/10/08 02:03:03;;;;;;;8.80;2.00;;;;;;;20.88;58.81;101151.81;2088996;28;20530;-76
2022/10/08 02:04:36;;;;;;;7.95;2.63;;;;;;;20.91;58.95;101148.19;2093983;28;20051;-76
2022/10/08 02:05:58;;;;;;;7.20;2.03;;;;;;;20.92;59.13;101150.84;2096453;28;20076;-75
2022/10/08 02:07:23;;;;;;;7.90;3.03;;;;;;;20.93;59.66;101155.31;2094490;28;20051;-75
2022/10/08 02:08:48;;;;;;;6.47;2.00;;;;;;;20.93;59.91;101152.63;2094458;28;20044;-75
2022/10/08 02:10:14;;;;;;;9.32;1.98;;;;;;;20.95;59.93;101147.19;2093867;28;20572;-75
2022/10/08 02:11:35;;;;;;;9.38;2.47;;;;;;;20.93;60.15;101152.63;2087594;28;20139;-76
2022/10/08 02:12:58;;;;;;;8.55;2.03;;;;;;;20.92;60.51;101145.47;2084368;28;20061;-76
2022/10/08 02:14:24;;;;;;;11.82;2.63;;;;;;;20.91;60.62;101151.75;2092225;28;20511;-75
2022/10/08 02:15:59;;;;;;;9.05;2.75;;;;;;;20.89;60.76;101152.69;2088295;28;20048;-75
2022/10/08 02:17:27;;;;;;;10.43;2.20;;;;;;;20.87;60.87;101149.19;2096242;28;20147;-75
2022/10/08 02:18:57;;;;;;;7.10;1.92;;;;;;;20.88;60.81;101151.81;2094358;28;20045;-75
2022/10/08 02:20:26;;;;;;;6.85;1.83;;;;;;;20.86;60.87;101150.97;2087399;28;20440;-75
2022/10/08 02:21:51;;;;;;;8.55;2.30;;;;;;;20.86;61.04;101150.09;2095673;28;20148;-75
2022/10/08 02:23:21;;;;;;;8.32;1.95;;;;;;;20.85;61.27;101157.25;2094798;28;20527;-75
2022/10/08 02:24:47;;;;;;;12.18;2.55;;;;;;;20.85;61.24;101148.31;2102545;28;20116;-75
2022/10/08 02:26:12;;;;;;;8.23;2.10;;;;;;;20.87;61.05;101158.09;2081004;28;20045;-75
2022/10/08 02:27:45;;;;;;;5.57;1.88;;;;;;;20.92;61.08;101155.34;2095139;28;20055;-75
2022/10/08 02:29:10;;;;;;;;;;;;;;;20.90;60.88;101166.09;2088725;28;20053;-75
2022/10/08 02:30:37;;;;;;;6.53;2.28;;;;;;;20.92;61.00;101160.69;2081659;28;20467;-75
2022/10/08 02:32:10;;;;;;;12.38;2.70;;;;;;;20.93;60.68;101149.94;2078454;28;20104;-75
2022/10/08 02:33:38;;;;;;;7.60;2.25;;;;;;;20.92;60.86;101155.34;2101792;28;20116;-75
2022/10/08 02:35:04;;;;;;;10.05;2.05;;;;;;;20.90;60.77;101155.34;2079312;28;20069;-76
2022/10/08 02:36:31;;;;;;;7.55;1.92;;;;;;;20.88;60.69;101154.50;2093439;28;20051;-75
2022/10/08 02:37:58;;;;;;;5.40;1.65;;;;;;;20.89;60.61;101160.75;2086215;28;20045;-75
2022/10/08 02:39:23;;;;;;;6.55;2.53;;;;;;;20.90;60.40;101159.84;2084283;28;20033;-75
2022/10/08 02:40:51;;;;;;;7.18;2.17;;;;;;;20.91;60.38;101161.59;2091738;28;20165;-75
2022/10/08 02:42:17;;;;;;;6.72;2.10;;;;;;;20.92;60.34;101155.34;2086806;28;20106;-75
2022/10/08 02:43:47;;;;;;;7.65;2.03;;;;;;;20.92;60.41;101156.22;2088230;28;20037;-75
2022/10/08 02:45:13;;;;;;;8.30;2.10;;;;;;;20.94;60.62;101161.53;2094257;28;20044;-75
2022/10/08 02:46:40;;;;;;;8.27;2.08;;;;;;;20.94;60.57;101162.41;2094259;28;20037;-75
2022/10/08 02:48:11;;;;;;;9.05;2.35;;;;;;;20.93;60.72;101166.03;2076727;28;20140;-75
2022/10/08 02:49:36;;;;;;;8.80;2.35;;;;;;;20.91;60.74;101149.06;2084677;28;20045;-75
2022/10/08 02:51:04;;;;;;;11.10;2.72;;;;;;;20.91;60.77;101149.06;2082546;28;20082;-75
2022/10/08 02:52:29;;;;;;;10.27;2.30;;;;;;;20.92;60.64;101158.03;2083467;28;20048;-76
2022/10/08 02:53:52;;;;;;;8.00;2.38;;;;;;;20.91;60.37;101162.50;2085019;28;20049;-76
2022/10/08 02:55:21;;;;;;;12.88;2.05;;;;;;;20.93;60.43;101157.09;2096491;28;20139;-76
2022/10/08 02:56:50;;;;;;;5.30;1.90;;;;;;;20.93;60.34;101159.78;2088538;28;20045;-75
2022/10/08 02:58:14;;;;;;;9.60;2.60;;;;;;;20.93;60.52;101163.38;2086637;28;20064;-76
2022/10/08 02:59:37;;;;;;;8.95;2.70;;;;;;;20.92;60.56;101160.69;2081349;28;20102;-75
2022/10/08 03:01:06;;;;;;;12.52;2.75;;;;;;;20.92;60.74;101160.69;2086086;28;20067;-75
2022/10/08 03:02:35;;;;;;;10.13;2.97;;;;;;;20.90;60.74;101162.53;2085620;28;20041;-76
2022/10/08 03:04:05;;;;;;;8.05;2.42;;;;;;;20.89;60.92;101166.13;2092381;28;20542;-75
2022/10/08 03:05:27;;;;;;;7.70;2.08;;;;;;;20.85;61.09;101165.31;2094205;28;20058;-75
2022/10/08 03:06:52;;;;;;;10.73;2.70;;;;;;;20.82;61.32;101165.34;2088554;28;20162;-75
2022/10/08 03:08:15;;;;;;;11.85;2.92;;;;;;;20.81;61.24;101154.66;2094831;28;20135;-75
2022/10/08 03:09:41;;;;;;;6.47;2.25;;;;;;;20.78;61.18;101162.78;2095894;28;20127;-76
2022/10/08 03:11:05;;;;;;;5.47;2.40;;;;;;;20.77;61.11;101164.56;2094676;28;20056;-75
2022/10/08 03:12:26;;;;;;;9.52;2.58;;;;;;;20.77;60.95;101166.38;2085285;28;20379;-76
2022/10/08 03:13:50;;;;;;;7.90;2.58;;;;;;;20.78;61.08;101158.28;2096537;28;20052;-76
2022/10/08 03:15:13;;;;;;;11.40;2.70;;;;;;;20.81;60.95;101157.31;2095677;28;20153;-75
2022/10/08 03:16:40;;;;;;;9.30;2.50;;;;;;;20.83;61.10;101163.56;2085913;28;20049;-75
2022/10/08 03:18:07;;;;;;;8.13;2.30;;;;;;;20.86;60.91;101160.81;2091253;28;20598;-75
2022/10/08 03:19:31;;;;;;;8.20;2.70;;;;;;;20.86;60.97;101155.47;2085895;28;20488;-75
2022/10/08 03:20:54;;;;;;;8.07;2.22;;;;;;;20.83;61.08;101158.19;2098206;28;20044;-75
2022/10/08 03:22:17;;;;;;;9.15;2.70;;;;;;;20.79;61.03;101153.81;2095951;28;20040;-75
2022/10/08 03:23:39;;;;;;;10.77;3.17;;;;;;;20.76;61.50;101156.53;2086176;28;20513;-75
2022/10/08 03:25:03;;;;;;;7.75;2.42;;;;;;;20.75;61.25;101165.50;2085460;28;20041;-75
2022/10/08 03:26:24;;;;;;;8.45;2.25;;;;;;;20.73;61.51;101160.19;2084035;28;20045;-75
2022/10/08 03:27:47;;;;;;;8.43;2.25;;;;;;;20.74;61.32;101158.41;2090503;28;20055;-75
2022/10/08 03:29:11;;;;;;;8.02;1.83;;;;;;;20.73;61.27;101153.94;2085044;28;20077;-75
2022/10/08 03:30:33;;;;;;;7.63;2.33;;;;;;;20.75;61.20;101152.97;2082804;28;20045;-75
2022/10/08 03:31:55;;;;;;;8.13;2.00;;;;;;;20.77;61.08;101152.94;2082386;28;20072;-75
2022/10/08 03:33:17;;;;;;;9.02;2.08;;;;;;;20.80;61.18;101159.16;2092505;28;20044;-75
2022/10/08 03:34:41;;;;;;;7.70;2.20;;;;;;;20.85;61.21;101159.06;2092973;28;20072;-75
2022/10/08 03:36:03;;;;;;;8.75;2.60;;;;;;;20.86;61.34;101160.81;2085467;28;20090;-75
2022/10/08 03:37:26;;;;;;;10.00;2.72;;;;;;;20.89;61.28;101166.13;2081534;28;20049;-75
2022/10/08 03:38:49;;;;;;;8.88;2.38;;;;;;;20.92;61.32;101164.28;2082460;28;20053;-76
2022/10/08 03:40:10;;;;;;;9.70;2.00;;;;;;;20.95;61.47;101161.50;2091411;28;20048;-75
2022/10/08 03:41:33;;;;;;;9.18;2.40;;;;;;;20.99;61.28;101162.34;2079785;28;20083;-75
2022/10/08 03:42:55;;;;;;;8.68;2.40;;;;;;;21.02;61.36;101156.91;2090988;28;20067;-75
2022/10/08 03:44:16;;;;;;;6.15;2.03;;;;;;;21.04;61.36;101155.97;2087359;28;20041;-75
2022/10/08 03:45:39;;;;;;;8.10;2.45;;;;;;;21.06;61.67;101156.81;2085556;28;20045;-75
2022/10/08 03:47:00;;;;;;;8.27;3.08;;;;;;;21.08;61.67;101157.66;2079082;28;20048;-76
2022/10/08 03:48:23;;;;;;;9.20;2.50;;;;;;;21.11;61.88;101147.78;2090675;28;20041;-75
2022/10/08 03:49:50;;;;;;;7.00;2.70;;;;;;;21.13;61.98;101143.25;2092591;28;20101;-75
2022/10/08 03:51:13;;;;;;;11.63;2.47;;;;;;;21.13;61.83;101152.19;2093937;28;20056;-76
2022/10/08 03:52:35;;;;;;;8.60;2.25;;;;;;;21.11;62.09;101142.41;2088012;28;20554;-75
2022/10/08 03:53:58;;;;;;;10.65;2.80;;;;;;;21.09;61.92;101137.06;2082946;28;20041;-75
2022/10/08 03:55:20;;;;;;;9.98;2.25;;;;;;;21.07;62.21;101133.50;2097763;28;20044;-76
2022/10/08 03:56:42;;;;;;;9.68;2.63;;;;;;;21.01;62.35;101139.00;2096209;28;20500;-76
2022/10/08 03:58:04;;;;;;;11.68;3.97;;;;;;;20.96;62.58;101140.91;2100986;28;20052;-76
2022/10/08 03:59:27;;;;;;;7.88;2.25;;;;;;;20.89;62.48;101136.59;2087922;28;20064;-76
2022/10/08 04:00:56;;;;;;;6.72;2.75;;;;;;;20.84;62.62;101144.75;2092735;28;20135;-76
2022/10/08 04:02:19;;;;;;;10.25;2.85;;;;;;;20.79;62.85;101140.41;2087763;28;20516;-76
2022/10/08 04:03:40;;;;;;;7.13;2.03;;;;;;;20.74;62.99;101140.50;2084467;28;20029;-76
2022/10/08 04:05:05;;;;;;;14.10;3.00;;;;;;;20.73;62.80;101144.09;2099168;28;20608;-75
2022/10/08 04:06:28;;;;;;;9.18;3.05;;;;;;;20.71;63.07;101143.22;2096058;28;20052;-76
2022/10/08 04:07:49;;;;;;;10.75;2.15;;;;;;;20.73;62.87;101144.09;2092770;28;20062;-75
2022/10/08 04:09:12;;;;;;;11.13;2.30;;;;;;;20.74;62.96;101148.53;2084038;28;20041;-75
2022/10/08 04:10:37;;;;;;;9.52;3.05;;;;;;;20.79;62.96;101149.34;2088695;28;20432;-75
2022/10/08 04:12:00;;;;;;;10.55;3.00;;;;;;;20.80;63.15;101150.22;2085242;28;20393;-75
2022/10/08 04:13:21;;;;;;;10.23;2.90;;;;;;;20.80;62.87;101143.06;2089189;28;20056;-75
2022/10/08 04:14:44;;;;;;;6.82;2.10;;;;;;;20.82;63.09;101151.03;2104233;28;20690;-75
2022/10/08 04:16:07;;;;;;;10.07;2.65;;;;;;;20.85;62.97;101137.59;2097826;28;20044;-76
2022/10/08 04:17:29;;;;;;;9.43;2.22;;;;;;;20.85;62.92;101149.22;2087966;28;20037;-76
2022/10/08 04:18:50;;;;;;;10.82;2.85;;;;;;;20.86;63.10;101152.78;2076553;28;20756;-76
2022/10/08 04:20:15;;;;;;;10.15;2.65;;;;;;;20.89;63.21;101150.00;2087281;28;20090;-75
2022/10/08 04:21:38;;;;;;;8.40;2.80;;;;;;;20.89;63.18;101150.00;2090333;28;20641;-76
2022/10/08 04:22:59;;;;;;;9.27;2.72;;;;;;;20.92;63.19;101149.97;2101556;28;20512;-75
2022/10/08 04:24:21;;;;;;;11.00;2.58;;;;;;;20.94;63.23;101158.84;2086142;28;20055;-75
2022/10/08 04:25:50;;;;;;;10.98;2.45;;;;;;;20.98;63.31;101157.88;2082630;28;20082;-75
2022/10/08 04:27:12;;;;;;;11.80;2.80;;;;;;;20.98;63.37;101156.09;2078030;28;20148;-76
2022/10/08 04:28:34;;;;;;;10.48;2.28;;;;;;;20.99;63.31;101156.97;2093357;28;20081;-75
2022/10/08 04:29:57;;;;;;;7.95;2.80;;;;;;;20.98;63.41;101163.25;2082892;28;20049;-76
2022/10/08 04:31:22;;;;;;;5.90;2.28;;;;;;;20.97;63.22;101165.06;2098571;28;20071;-75
2022/10/08 04:32:43;;;;;;;11.85;3.05;;;;;;;20.98;63.05;101153.41;2096047;28;20066;-76
2022/10/08 04:34:06;;;;;;;8.50;2.75;;;;;;;21.00;63.07;101167.66;2091863;28;20048;-76
2022/10/08 04:35:29;;;;;;;13.07;2.80;;;;;;;21.01;62.90;101163.19;2092303;28;20408;-77
2022/10/08 04:36:51;;;;;;;10.15;2.50;;;;;;;21.00;63.04;101170.34;2092772;28;20048;-76
2022/10/08 04:38:13;;;;;;;11.05;2.60;;;;;;;21.02;62.91;101176.56;2086195;28;20521;-75
2022/10/08 04:39:36;;;;;;;10.43;2.40;;;;;;;21.06;62.82;101177.41;2073727;28;20041;-76
2022/10/08 04:41:02;;;;;;;10.48;2.92;;;;;;;21.12;62.58;101168.34;2079425;28;20102;-76
2022/10/08 04:42:24;;;;;;;9.75;2.60;;;;;;;21.17;62.34;101177.22;2083546;28;20160;-76
2022/10/08 04:43:46;;;;;;;8.57;2.50;;;;;;;21.21;62.26;101165.47;2089459;28;20080;-75
2022/10/08 04:45:12;;;;;;;14.05;2.97;;;;;;;21.23;62.37;101172.59;2092779;28;20078;-76
2022/10/08 04:46:35;;;;;;;11.60;2.72;;;;;;;21.22;62.60;101173.50;2094337;28;20156;-75
2022/10/08 04:47:56;;;;;;;9.45;2.42;;;;;;;21.23;62.59;101169.03;2088808;28;20051;-76
2022/10/08 04:49:19;;;;;;;11.48;3.00;;;;;;;21.20;62.79;101180.69;2085434;28;20424;-76
2022/10/08 04:50:42;;;;;;;11.98;2.78;;;;;;;21.21;62.83;101178.91;2085720;28;20037;-76
2022/10/08 04:52:04;;;;;;;9.43;2.70;;;;;;;21.16;62.83;101172.75;2090987;28;20048;-76
2022/10/08 04:53:26;;;;;;;9.57;2.63;;;;;;;21.13;62.68;101179.06;2097347;28;20469;-76
2022/10/08 04:54:49;;;;;;;10.35;3.17;;;;;;;21.13;62.52;101181.75;2086339;28;20048;-76
2022/10/08 04:56:14;;;;;;;10.55;2.92;;;;;;;21.16;62.29;101189.75;2092446;28;20045;-76
2022/10/08 04:57:36;;;;;;;9.25;2.83;;;;;;;21.19;62.33;101197.75;2094615;28;20135;-75
2022/10/08 04:58:58;;;;;;;10.27;3.03;;;;;;;21.25;61.86;101180.63;2094361;28;20083;-75
2022/10/08 05:00:20;;;;;;;;;;;;;;;21.26;61.91;101196.72;2094811;28;20134;-75
2022/10/08 05:01:42;;;;;;;7.72;2.40;;;;;;;21.30;61.70;101200.19;2080822;28;19928;-76
2022/10/08 05:03:04;;;;;;;11.02;2.67;;;;;;;21.34;61.73;101196.53;2100839;28;20051;-76
2022/10/08 05:04:27;;;;;;;9.27;2.50;;;;;;;21.36;61.53;101192.00;2096040;28;20085;-75
2022/10/08 05:05:49;;;;;;;9.63;2.75;;;;;;;21.38;61.52;101193.75;2097230;28;20052;-76
2022/10/08 05:07:12;;;;;;;8.75;2.90;;;;;;;21.42;61.21;101202.63;2080965;28;20136;-76
2022/10/08 05:08:35;;;;;;;18.63;2.83;;;;;;;21.44;61.02;101201.69;2090362;28;20098;-77
2022/10/08 05:09:57;;;;;;;8.95;2.30;;;;;;;21.46;60.98;101199.81;2086581;28;20699;-75
2022/10/08 05:11:24;;;;;;;10.65;2.70;;;;;;;21.51;60.86;101201.53;2094906;28;20056;-76
2022/10/08 05:12:46;;;;;;;11.77;2.70;;;;;;;21.52;60.76;101204.19;2084975;28;20044;-76
2022/10/08 05:14:10;;;;;;;9.13;2.25;;;;;;;21.51;60.63;101205.13;2090504;28;20110;-76
2022/10/08 05:15:34;;;;;;;12.27;3.33;;;;;;;21.50;60.72;101195.28;2093930;28;20116;-76
2022/10/08 05:16:56;;;;;;;9.88;2.50;;;;;;;21.50;60.75;101199.75;2089341;28;20056;-76
2022/10/08 05:18:18;;;;;;;8.27;2.22;;;;;;;21.51;60.89;101206.91;2088792;28;20495;-76
2022/10/08 05:19:40;;;;;;;7.15;2.38;;;;;;;21.50;60.96;101211.41;2093009;28;20043;-76
2022/10/08 05:21:04;;;;;;;12.27;3.30;;;;;;;21.52;61.22;101214.06;2103204;28;20052;-76
2022/10/08 05:22:27;;;;;;;7.82;2.65;;;;;;;21.54;61.50;101214.88;2084273;28;20120;-75
2022/10/08 05:23:55;;;;;;;8.68;2.60;;;;;;;21.58;61.57;101221.97;2100560;28;20084;-76
2022/10/08 05:25:16;;;;;;;9.43;3.28;;;;;;;21.59;61.61;101216.59;2082180;28;20049;-75
2022/10/08 05:26:40;;;;;;;8.00;2.45;;;;;;;21.59;61.36;101213.91;2083192;28;20040;-75
2022/10/08 05:28:03;;;;;;;8.40;2.33;;;;;;;21.63;61.48;101212.00;2078789;28;20180;-76
2022/10/08 05:29:27;;;;;;;8.85;2.53;;;;;;;21.64;61.34;101209.28;2091082;28;20131;-76
2022/10/08 05:30:48;;;;;;;6.60;2.28;;;;;;;21.65;61.43;101218.25;2080782;28;20111;-76
2022/10/08 05:32:11;;;;;;;8.45;2.50;;;;;;;21.66;61.49;101206.56;2080300;28;20045;-77
2022/10/08 05:33:35;;;;;;;11.93;2.95;;;;;;;21.68;61.47;101219.03;2085911;28;20037;-76
2022/10/08 05:34:58;;;;;;;10.10;2.40;;;;;;;21.69;61.39;101214.56;2089489;28;20044;-75
2022/10/08 05:36:23;;;;;;;12.55;3.75;;;;;;;21.69;61.16;101203.81;2088870;28;20044;-75
2022/10/08 05:37:46;;;;;;;11.30;2.72;;;;;;;21.68;61.24;101218.16;2101014;28;20090;-76
2022/10/08 05:39:08;;;;;;;8.85;2.47;;;;;;;21.70;61.07;101219.91;2089592;28;20056;-76
2022/10/08 05:40:31;;;;;;;9.80;2.47;;;;;;;21.76;60.93;101226.94;2097983;28;20060;-76
2022/10/08 05:41:54;;;;;;;7.45;1.85;;;;;;;21.86;60.71;101223.09;2088068;28;20370;-76
2022/10/08 05:43:17;;;;;;;9.90;2.40;;;;;;;21.94;60.49;101231.00;2078201;28;20144;-76
2022/10/08 05:44:38;;;;;;;9.18;2.40;;;;;;;22.00;60.31;101217.44;2079695;28;20061;-76
2022/10/08 05:46:00;;;;;;;8.73;2.42;;;;;;;22.04;59.96;101219.13;2091823;28;20148;-76
2022/10/08 05:47:23;;;;;;;11.77;2.40;;;;;;;22.14;59.78;101220.66;2085690;28;20048;-75
2022/10/08 05:48:45;;;;;;;6.55;2.33;;;;;;;22.24;59.47;101217.72;2080459;28;20150;-75
2022/10/08 05:50:08;;;;;;;6.13;2.45;;;;;;;22.31;59.52;101223.84;2073123;28;20646;-76
2022/10/08 05:51:33;;;;;;;8.63;2.47;;;;;;;22.30;59.39;101221.19;2088764;28;20049;-76
2022/10/08 05:52:56;;;;;;;3.78;1.45;;;;;;;22.23;59.54;101225.84;2086625;28;20053;-75
2022/10/08 05:54:17;;;;;;;9.45;2.60;;;;;;;22.16;59.32;101222.41;2093739;28;20048;-76
2022/10/08 05:55:40;;;;;;;7.47;2.13;;;;;;;22.10;59.20;101236.00;2088190;28;20051;-76
2022/10/08 05:57:01;;;;;;;10.63;2.08;;;;;;;22.09;59.08;101241.44;2091012;28;20040;-76
2022/10/08 05:58:24;;;;;;;16.00;2.88;;;;;;;22.10;59.09;101227.06;2088962;28;20052;-76
2022/10/08 05:59:48;;;;;;;6.47;2.03;;;;;;;22.10;59.08;101233.31;2078199;28;20049;-76
2022/10/08 06:01:14;;;;;;;9.57;3.10;;;;;;;22.08;58.77;101229.78;2093161;28;20471;-76
2022/10/08 06:02:36;;;;;;;9.95;2.10;;;;;;;22.03;58.68;101234.41;2083750;28;20111;-77
2022/10/08 06:04:01;;;;;;;12.90;2.42;;;;;;;22.02;58.74;101232.63;2078930;28;20665;-76
2022/10/08 06:05:22;;;;;;;12.63;2.55;;;;;;;22.09;58.69;101231.56;2084293;28;20497;-76
2022/10/08 06:06:46;;;;;;;5.93;2.00;;;;;;;22.21;58.38;101231.25;2085709;28;20041;-77
2022/10/08 06:08:08;;;;;;;7.10;2.20;;;;;;;22.24;58.28;101236.56;2091943;28;20048;-76
2022/10/08 06:09:31;;;;;;;8.77;2.35;;;;;;;22.28;58.30;101240.06;2086812;28;20049;-76
2022/10/08 06:10:53;;;;;;;6.38;2.15;;;;;;;22.34;58.17;101239.00;2101659;28;20143;-75
2022/10/08 06:12:16;;;;;;;10.50;2.40;;;;;;;22.39;57.79;101242.47;2087843;28;20049;-74
2022/10/08 06:13:37;;;;;;;10.40;2.75;;;;;;;22.44;57.42;101251.31;2092737;28;20036;-74
2022/10/08 06:15:00;;;;;;;7.82;2.33;;;;;;;22.47;57.15;101248.53;2096856;28;20084;-73
2022/10/08 06:16:21;;;;;;;6.90;1.85;;;;;;;22.51;57.00;101243.03;2085598;28;20063;-73
2022/10/08 06:17:44;;;;;;;;;;;;;;;22.54;56.94;101250.16;2092075;28;20063;-73
2022/10/08 06:19:07;;;;;;;7.15;1.88;;;;;;;22.57;56.82;101247.38;2093332;28;19924;-74
2022/10/08 06:20:31;;;;;;;7.95;2.17;;;;;;;22.61;56.75;101251.75;2089228;28;20584;-73
2022/10/08 06:21:54;;;;;;;8.88;2.42;;;;;;;22.65;56.79;101258.81;2094328;28;20041;-74
2022/10/08 06:23:17;;;;;;;14.35;2.30;;;;;;;22.66;56.84;101260.59;2088640;28;20065;-73
2022/10/08 06:24:40;;;;;;;7.30;2.00;;;;;;;22.71;56.82;101257.81;2089276;28;20039;-74
2022/10/08 06:26:02;;;;;;;5.40;1.90;;;;;;;22.73;56.91;101256.84;2092749;28;20540;-74
2022/10/08 06:27:24;;;;;;;12.40;2.97;;;;;;;22.71;56.91;101252.41;2085694;28;20485;-74
2022/10/08 06:28:46;;;;;;;7.45;1.83;;;;;;;22.69;56.86;101254.25;2095592;28;20075;-74
2022/10/08 06:30:10;;;;;;;8.38;2.70;;;;;;;22.72;56.62;101259.53;2087389;28;20127;-74
2022/10/08 06:31:31;;;;;;;11.60;2.53;;;;;;;22.74;56.67;101265.81;2085035;28;20040;-74
2022/10/08 06:32:54;;;;;;;6.28;2.13;;;;;;;22.73;56.57;101258.66;2093443;28;20051;-73
2022/10/08 06:34:17;;;;;;;9.15;2.22;;;;;;;22.72;56.57;101265.81;2092232;28;20128;-73